createdAt,value
2018-12-04T00:00:50.221Z,6.87
2018-12-04T00:03:37.755Z,6.60
2018-12-04T00:06:25.551Z,5.10
2018-12-04T00:09:13.332Z,4.47
2018-12-04T00:12:01.115Z,6.83
2018-12-04T00:14:29.629Z,5.20
2018-12-04T00:16:58.408Z,5.50
2018-12-04T00:19:46.447Z,6.50
2018-12-04T00:22:34.593Z,5.83
2018-12-04T00:25:22.334Z,7.03
2018-12-04T00:28:09.950Z,9.57
2018-12-04T00:30:57.504Z,7.12
2018-12-04T00:33:45.429Z,9.50
2018-12-04T00:36:32.983Z,6.77
2018-12-04T00:39:20.522Z,6.30
2018-12-04T00:45:08.767Z,6.70
2018-12-04T00:47:56.596Z,4.17
2018-12-04T00:50:44.736Z,5.50
2018-12-04T00:53:32.295Z,5.83
2018-12-04T00:56:20.210Z,4.80
2018-12-04T00:59:07.845Z,6.08
2018-12-04T01:01:55.412Z,5.23
2018-12-04T01:04:43.327Z,4.15
2018-12-04T01:07:30.896Z,3.83
2018-12-04T01:10:18.695Z,3.08
2018-12-04T01:13:06.372Z,4.73
2018-12-04T01:15:53.922Z,6.60
2018-12-04T01:18:41.895Z,6.93
2018-12-04T01:21:29.788Z,6.12
2018-12-04T01:24:17.332Z,8.73
2018-12-04T01:27:05.190Z,9.30
2018-12-04T01:29:52.823Z,11.57
2018-12-04T01:32:21.416Z,7.87
2018-12-04T01:35:08.959Z,10.70
2018-12-04T01:37:57.308Z,9.97
2018-12-04T01:40:45.473Z,13.90
2018-12-04T01:43:33.164Z,14.30
2018-12-04T01:46:21.068Z,12.70
2018-12-04T01:48:49.646Z,15.78
2018-12-04T01:51:37.459Z,12.47
2018-12-04T01:54:25.031Z,12.03
2018-12-04T01:57:13.128Z,10.53
2018-12-04T01:59:41.607Z,13.98
2018-12-04T02:02:29.265Z,12.80
2018-12-04T02:05:16.819Z,12.10
2018-12-04T02:08:04.399Z,16.10
2018-12-04T02:10:52.432Z,14.15
2018-12-04T02:13:39.971Z,12.53
2018-12-04T02:16:27.539Z,13.08
2018-12-04T02:19:15.107Z,8.63
2018-12-04T02:22:03.027Z,7.37
2018-12-04T02:24:50.693Z,9.23
2018-12-04T02:27:38.349Z,9.30
2018-12-04T02:30:25.977Z,11.00
2018-12-04T02:33:13.555Z,8.95
2018-12-04T02:36:01.648Z,11.18
2018-12-04T02:38:49.204Z,8.73
2018-12-04T02:41:29.353Z,6.30
2018-12-04T02:44:09.777Z,8.63
2018-12-04T02:46:50.463Z,11.08
2018-12-04T02:49:30.600Z,7.20
2018-12-04T02:52:10.952Z,7.45
2018-12-04T02:54:51.772Z,6.95
2018-12-04T02:57:31.700Z,6.22
2018-12-04T03:00:11.928Z,6.80
2018-12-04T03:02:51.941Z,6.60
2018-12-04T03:05:32.697Z,9.08
2018-12-04T03:08:13.343Z,7.22
2018-12-04T03:10:54.287Z,6.93
2018-12-04T03:13:34.667Z,6.33
2018-12-04T03:16:03.181Z,7.70
2018-12-04T03:18:31.805Z,5.12
2018-12-04T03:21:19.637Z,6.33
2018-12-04T03:24:07.207Z,7.60
2018-12-04T03:26:54.751Z,6.75
2018-12-04T03:29:42.648Z,7.03
2018-12-04T03:32:30.569Z,5.33
2018-12-04T03:35:18.142Z,5.17
2018-12-04T03:38:05.684Z,5.90
2018-12-04T03:40:53.341Z,6.37
2018-12-04T03:43:40.896Z,6.10
2018-12-04T03:46:28.866Z,5.40
2018-12-04T03:48:57.399Z,6.45
2018-12-04T03:51:45.037Z,7.53
2018-12-04T03:54:32.832Z,5.03
2018-12-04T03:57:20.485Z,6.40
2018-12-04T04:00:08.252Z,5.00
2018-12-04T04:02:55.924Z,3.62
2018-12-04T04:05:43.641Z,5.50
2018-12-04T04:08:31.279Z,6.22
2018-12-04T04:11:19.032Z,7.57
2018-12-04T04:14:06.674Z,4.05
2018-12-04T04:16:54.826Z,4.83
2018-12-04T04:19:42.548Z,4.95
2018-12-04T04:22:30.492Z,6.80
2018-12-04T04:25:18.052Z,3.08
2018-12-04T04:28:05.598Z,4.53
2018-12-04T04:30:53.432Z,2.12
2018-12-04T04:33:41.089Z,3.47
2018-12-04T04:36:28.739Z,3.90
2018-12-04T04:38:57.466Z,2.75
2018-12-04T04:41:45.044Z,3.67
2018-12-04T04:44:32.599Z,2.62
2018-12-04T04:47:20.524Z,2.72
2018-12-04T04:50:08.883Z,4.03
2018-12-04T04:52:37.975Z,4.28
2018-12-04T04:55:26.417Z,3.42
2018-12-04T04:58:14.276Z,2.37
2018-12-04T05:01:02.210Z,2.80
2018-12-04T05:03:49.965Z,4.75
2018-12-04T05:06:37.763Z,2.10
2018-12-04T05:09:07.434Z,3.02
2018-12-04T05:11:36.023Z,3.02
2018-12-04T05:14:04.828Z,3.00
2018-12-04T05:16:33.531Z,7.37
2018-12-04T05:19:21.190Z,2.77
2018-12-04T05:22:08.860Z,4.90
2018-12-04T05:24:37.374Z,3.00
2018-12-04T05:27:25.016Z,2.67
2018-12-04T05:30:12.692Z,3.65
2018-12-04T05:33:00.537Z,3.50
2018-12-04T05:35:48.421Z,4.37
2018-12-04T05:38:36.261Z,4.12
2018-12-04T05:41:04.777Z,4.17
2018-12-04T05:43:52.608Z,3.05
2018-12-04T05:46:21.030Z,3.83
2018-12-04T05:48:49.475Z,3.35
2018-12-04T05:51:37.032Z,3.50
2018-12-04T05:54:24.601Z,2.58
2018-12-04T05:57:12.168Z,4.72
2018-12-04T06:00:00.216Z,4.37
2018-12-04T06:02:47.840Z,4.77
2018-12-04T06:05:35.539Z,3.40
2018-12-04T06:08:23.215Z,4.12
2018-12-04T06:11:10.997Z,6.10
2018-12-04T06:13:58.555Z,3.50
2018-12-04T06:16:46.457Z,3.40
2018-12-04T06:19:34.056Z,2.22
2018-12-04T06:22:21.948Z,3.77
2018-12-04T06:25:09.897Z,4.87
2018-12-04T06:27:57.835Z,3.95
2018-12-04T06:30:45.672Z,3.05
2018-12-04T06:33:33.337Z,3.17
2018-12-04T06:36:20.996Z,2.87
2018-12-04T06:39:09.519Z,3.67
2018-12-04T06:41:57.427Z,3.67
2018-12-04T06:44:25.903Z,3.77
2018-12-04T06:46:54.674Z,4.50
2018-12-04T06:49:42.528Z,4.87
2018-12-04T06:52:30.071Z,4.03
2018-12-04T06:55:17.906Z,3.47
2018-12-04T06:57:54.651Z,3.37
2018-12-04T07:00:42.601Z,5.30
2018-12-04T07:03:30.152Z,3.27
2018-12-04T07:05:58.932Z,3.70
2018-12-04T07:08:46.846Z,5.00
2018-12-04T07:11:34.533Z,4.37
2018-12-04T07:14:22.427Z,3.83
2018-12-04T07:17:10.260Z,4.62
2018-12-04T07:19:58.635Z,4.55
2018-12-04T07:22:46.176Z,3.67
2018-12-04T07:25:33.883Z,3.10
2018-12-04T07:28:21.428Z,4.95
2018-12-04T07:31:08.979Z,5.97
2018-12-04T07:33:56.542Z,3.35
2018-12-04T07:36:44.118Z,3.58
2018-12-04T07:39:32.247Z,2.85
2018-12-04T07:42:20.063Z,3.30
2018-12-04T07:45:08.020Z,3.10
2018-12-04T07:47:36.476Z,2.95
2018-12-04T07:50:24.137Z,2.37
2018-12-04T07:53:11.704Z,3.25
2018-12-04T07:55:59.600Z,6.08
2018-12-04T07:58:47.156Z,6.33
2018-12-04T08:01:35.105Z,5.05
2018-12-04T08:04:22.884Z,4.05
2018-12-04T08:07:10.444Z,4.15
2018-12-04T08:09:58.017Z,6.97
2018-12-04T08:12:45.667Z,4.53
2018-12-04T08:15:33.464Z,4.60
2018-12-04T08:18:21.048Z,6.53
2018-12-04T08:21:08.783Z,4.55
2018-12-04T08:23:56.754Z,4.40
2018-12-04T08:26:25.684Z,4.47
2018-12-04T08:29:13.597Z,3.80
2018-12-04T08:32:01.285Z,4.00
2018-12-04T08:34:49.137Z,3.70
2018-12-04T08:37:17.892Z,4.05
2018-12-04T08:40:06.180Z,3.45
2018-12-04T08:48:30.596Z,2.77
2018-12-04T08:51:18.156Z,2.30
2018-12-04T08:54:06.056Z,3.45
2018-12-04T08:56:54.028Z,2.85
2018-12-04T08:59:41.600Z,2.80
2018-12-04T09:02:29.247Z,3.00
2018-12-04T09:04:57.679Z,3.50
2018-12-04T09:07:45.512Z,3.15
2018-12-04T09:10:33.061Z,2.33
2018-12-04T09:13:20.765Z,3.20
2018-12-04T09:16:08.555Z,3.47
2018-12-04T09:18:56.278Z,3.75
2018-12-04T09:24:32.802Z,1.95
2018-12-04T09:27:20.830Z,1.87
2018-12-04T09:30:09.530Z,1.60
2018-12-04T09:32:57.367Z,3.08
2018-12-04T09:35:45.224Z,0.93
2018-12-04T09:38:32.880Z,1.40
2018-12-04T09:41:20.535Z,2.02
2018-12-04T09:44:08.171Z,2.10
2018-12-04T09:46:56.020Z,3.08
2018-12-04T09:49:43.598Z,1.75
2018-12-04T09:52:31.136Z,3.58
2018-12-04T09:55:19.048Z,2.62
2018-12-04T09:58:06.890Z,5.25
2018-12-04T10:03:50.233Z,1.92
2018-12-04T10:06:38.472Z,2.55
2018-12-04T10:09:26.316Z,1.70
2018-12-04T10:11:54.865Z,4.62
2018-12-04T10:14:43.032Z,3.02
2018-12-04T10:17:30.601Z,3.67
2018-12-04T10:20:18.285Z,4.03
2018-12-04T10:23:06.018Z,2.02
2018-12-04T10:25:53.689Z,1.45
2018-12-04T10:28:41.695Z,1.55
2018-12-04T10:31:29.380Z,1.30
2018-12-04T10:34:17.575Z,1.50
2018-12-04T10:37:05.239Z,2.90
2018-12-04T10:39:52.876Z,2.40
2018-12-04T10:42:40.676Z,2.12
2018-12-04T10:45:28.325Z,2.20
2018-12-04T10:48:15.868Z,4.05
2018-12-04T10:51:03.865Z,2.17
2018-12-04T10:53:51.421Z,3.25
2018-12-04T10:56:38.976Z,2.60
2018-12-04T10:59:26.520Z,2.33
2018-12-04T11:02:33.583Z,2.00
2018-12-04T11:05:21.115Z,4.70
2018-12-04T11:08:08.903Z,5.65
2018-12-04T11:10:56.570Z,2.45
2018-12-04T11:13:44.130Z,2.22
2018-12-04T11:16:32.047Z,2.60
2018-12-04T11:19:20.048Z,1.90
2018-12-04T11:22:08.185Z,1.17
2018-12-04T11:24:55.762Z,2.62
2018-12-04T11:27:43.746Z,2.77
2018-12-04T11:30:31.828Z,1.47
2018-12-04T11:33:19.639Z,2.05
2018-12-04T11:36:07.195Z,2.80
2018-12-04T11:38:55.095Z,2.42
2018-12-04T11:41:42.740Z,2.98
2018-12-04T11:44:30.309Z,3.27
2018-12-04T11:47:18.010Z,3.55
2018-12-04T11:50:05.899Z,2.52
2018-12-04T11:52:54.087Z,2.77
2018-12-04T11:55:41.972Z,2.00
2018-12-04T11:58:29.660Z,4.83
2018-12-04T12:01:36.689Z,1.95
2018-12-04T12:04:24.684Z,4.67
2018-12-04T12:07:12.508Z,2.02
2018-12-04T12:10:00.923Z,3.35
2018-12-04T12:12:49.980Z,2.55
2018-12-04T12:15:37.965Z,1.85
2018-12-04T12:18:26.441Z,2.45
2018-12-04T12:20:55.166Z,2.85
2018-12-04T12:23:42.796Z,2.55
2018-12-04T12:26:30.352Z,3.00
2018-12-04T12:29:18.024Z,4.72
2018-12-04T12:31:46.700Z,3.80
2018-12-04T12:34:34.654Z,3.30
2018-12-04T12:37:22.382Z,2.65
2018-12-04T12:40:09.968Z,3.72
2018-12-04T12:42:57.872Z,5.08
2018-12-04T12:45:46.253Z,5.22
2018-12-04T12:48:34.220Z,4.53
2018-12-04T12:51:03.561Z,3.45
2018-12-04T12:53:51.606Z,5.33
2018-12-04T12:56:20.611Z,2.55
2018-12-04T12:58:49.712Z,4.07
2018-12-04T13:01:37.452Z,8.20
2018-12-04T13:04:25.031Z,4.55
2018-12-04T13:07:12.608Z,2.70
2018-12-04T13:10:00.637Z,4.17
2018-12-04T13:12:48.455Z,4.07
2018-12-04T13:15:36.040Z,4.73
2018-12-04T13:18:24.239Z,3.57
2018-12-04T13:21:04.360Z,4.00
2018-12-04T13:23:45.086Z,3.97
2018-12-04T13:26:25.341Z,5.12
2018-12-04T13:29:05.906Z,6.40
2018-12-04T13:31:47.068Z,6.33
2018-12-04T13:37:11.772Z,3.63
2018-12-04T13:39:52.516Z,3.72
2018-12-04T13:42:33.145Z,4.37
2018-12-04T13:45:14.441Z,6.08
2018-12-04T13:47:54.856Z,5.47
2018-12-04T13:50:34.976Z,5.05
2018-12-04T13:53:15.835Z,5.30
2018-12-04T13:55:55.959Z,3.60
2018-12-04T13:58:24.663Z,3.22
2018-12-04T14:01:12.631Z,7.55
2018-12-04T14:04:00.683Z,6.00
2018-12-04T14:07:10.061Z,5.67
2018-12-04T14:09:57.730Z,5.53
2018-12-04T14:12:45.591Z,6.33
2018-12-04T14:15:33.641Z,5.67
2018-12-04T14:18:21.878Z,5.83
2018-12-04T14:21:11.090Z,6.17
2018-12-04T14:23:59.229Z,4.13
2018-12-04T14:26:47.456Z,5.27
2018-12-04T14:29:36.222Z,4.07
2018-12-04T14:32:24.639Z,5.40
2018-12-04T14:35:12.302Z,8.33
2018-12-04T14:38:00.737Z,9.17
2018-12-04T14:43:42.634Z,13.53
2018-12-04T14:46:30.500Z,10.53
2018-12-04T14:49:18.071Z,7.83
2018-12-04T14:52:05.745Z,6.43
2018-12-04T14:54:53.984Z,11.10
2018-12-04T14:57:41.660Z,9.87
2018-12-04T15:00:29.824Z,10.57
2018-12-04T15:03:17.690Z,12.63
2018-12-04T15:05:46.515Z,7.50
2018-12-04T15:08:34.366Z,11.57
2018-12-04T15:11:22.367Z,10.00
2018-12-04T15:14:10.248Z,11.53
2018-12-04T15:16:58.455Z,22.10
2018-12-04T15:19:27.089Z,9.87
2018-12-04T15:22:15.162Z,15.60
2018-12-04T15:25:03.232Z,11.30
2018-12-04T15:27:50.966Z,6.00
2018-12-04T15:30:38.707Z,5.20
2018-12-04T15:33:26.385Z,23.50
2018-12-04T15:36:14.022Z,19.57
2018-12-04T15:39:01.204Z,12.77
2018-12-04T15:41:48.711Z,10.47
2018-12-04T15:44:37.930Z,12.23
2018-12-04T15:47:25.930Z,6.63
2018-12-04T15:50:13.603Z,9.87
2018-12-04T15:53:01.452Z,7.87
2018-12-04T15:55:49.473Z,7.85
2018-12-04T15:58:37.130Z,12.20
2018-12-04T16:01:25.024Z,9.37
2018-12-04T16:04:12.995Z,6.33
2018-12-04T16:07:00.559Z,8.83
2018-12-04T16:09:48.388Z,7.73
2018-12-04T16:12:36.184Z,6.37
2018-12-04T16:15:23.853Z,8.00
2018-12-04T16:18:12.260Z,7.53
2018-12-04T16:21:00.168Z,6.50
2018-12-04T16:23:47.983Z,9.27
2018-12-04T16:26:35.772Z,6.40
2018-12-04T16:29:23.763Z,5.03
2018-12-04T16:32:11.444Z,8.30
2018-12-04T16:34:59.103Z,14.37
2018-12-04T16:37:46.668Z,27.50
2018-12-04T16:40:34.240Z,23.17
2018-12-04T16:43:21.900Z,14.90
2018-12-04T16:46:09.636Z,10.50
2018-12-04T16:48:57.944Z,11.67
2018-12-04T16:51:45.783Z,15.60
2018-12-04T16:54:33.369Z,16.47
2018-12-04T16:57:21.012Z,15.93
2018-12-04T16:59:49.719Z,16.13
2018-12-04T17:02:37.333Z,14.53
2018-12-04T17:05:25.027Z,11.47
2018-12-04T17:08:12.584Z,9.67
2018-12-04T17:11:00.564Z,11.07
2018-12-04T17:13:48.144Z,6.37
2018-12-04T17:19:35.356Z,9.27
2018-12-04T17:22:23.112Z,9.33
2018-12-04T17:25:10.812Z,6.63
2018-12-04T17:27:58.776Z,6.53
2018-12-04T17:30:46.972Z,9.23
2018-12-04T17:33:15.404Z,8.17
2018-12-04T17:36:03.315Z,10.83
2018-12-04T17:38:50.996Z,13.40
2018-12-04T17:41:38.932Z,11.10
2018-12-04T17:44:26.501Z,12.13
2018-12-04T17:47:14.176Z,6.17
2018-12-04T17:50:02.187Z,11.43
2018-12-04T17:52:50.737Z,10.77
2018-12-04T17:55:38.614Z,9.23
2018-12-04T17:58:26.928Z,12.53
2018-12-04T18:01:14.512Z,11.43
2018-12-04T18:04:02.479Z,11.17
2018-12-04T18:06:50.243Z,7.60
2018-12-04T18:09:37.805Z,12.53
2018-12-04T18:12:25.620Z,11.47
2018-12-04T18:15:13.885Z,10.90
2018-12-04T18:18:01.796Z,12.43
2018-12-04T18:20:49.976Z,10.80
2018-12-04T18:23:37.886Z,13.13
2018-12-04T18:26:25.740Z,9.20
2018-12-04T18:29:13.298Z,11.47
2018-12-04T18:32:01.132Z,9.27
2018-12-04T18:34:49.036Z,16.03
2018-12-04T18:37:37.277Z,12.40
2018-12-04T18:40:25.044Z,16.83
2018-12-04T18:43:13.009Z,15.77
2018-12-04T18:46:00.976Z,15.80
2018-12-04T18:48:48.836Z,16.83
2018-12-04T18:51:36.412Z,15.00
2018-12-04T18:54:24.169Z,17.20
2018-12-04T18:57:12.332Z,20.03
2018-12-04T18:59:59.922Z,40.23
2018-12-04T19:02:47.596Z,18.83
2018-12-04T19:05:35.414Z,16.70
2018-12-04T19:08:42.307Z,15.93
2018-12-04T19:11:29.980Z,18.23
2018-12-04T19:14:18.064Z,15.80
2018-12-04T19:17:05.680Z,18.80
2018-12-04T19:19:53.364Z,57.43
2018-12-04T19:22:42.044Z,13.70
2018-12-04T19:25:31.084Z,19.03
2018-12-04T19:28:19.026Z,20.37
2018-12-04T19:31:08.134Z,22.20
2018-12-04T19:33:56.425Z,13.80
2018-12-04T19:36:44.017Z,16.50
2018-12-04T19:39:31.852Z,16.77
2018-12-04T19:42:19.705Z,19.33
2018-12-04T19:45:07.743Z,13.67
2018-12-04T19:47:55.657Z,12.60
2018-12-04T19:50:43.252Z,13.00
2018-12-04T19:53:31.575Z,13.23
2018-12-04T19:56:00.544Z,16.33
2018-12-04T19:58:48.744Z,16.60
2018-12-04T20:01:36.504Z,15.27
2018-12-04T20:04:24.504Z,15.97
2018-12-04T20:07:13.616Z,14.67
2018-12-04T20:10:01.586Z,15.23
2018-12-04T20:12:49.302Z,17.90
2018-12-04T20:15:37.095Z,18.57
2018-12-04T20:18:24.851Z,23.77
2018-12-04T20:21:12.590Z,30.23
2018-12-04T20:24:00.527Z,23.20
2018-12-04T20:26:48.350Z,19.23
2018-12-04T20:29:35.930Z,20.97
2018-12-04T20:32:23.874Z,18.73
2018-12-04T20:35:12.096Z,15.77
2018-12-04T20:37:59.924Z,17.17
2018-12-04T20:40:47.950Z,18.27
2018-12-04T20:43:16.708Z,22.40
2018-12-04T20:46:06.028Z,22.60
2018-12-04T20:48:54.668Z,18.53
2018-12-04T20:51:42.625Z,21.17
2018-12-04T20:54:30.012Z,24.83
2018-12-04T20:56:58.745Z,23.90
2018-12-04T20:59:46.746Z,21.23
2018-12-04T21:02:34.462Z,24.47
2018-12-04T21:05:22.157Z,26.83
2018-12-04T21:08:09.699Z,41.53
2018-12-04T21:10:57.463Z,27.47
2018-12-04T21:13:45.074Z,30.10
2018-12-04T21:16:33.355Z,35.60
2018-12-04T21:19:20.947Z,35.73
2018-12-04T21:22:09.340Z,35.13
2018-12-04T21:24:56.940Z,30.97
2018-12-04T21:28:04.212Z,24.63
2018-12-04T21:31:11.273Z,21.97
2018-12-04T21:34:18.163Z,19.53
2018-12-04T21:37:25.425Z,21.97
2018-12-04T21:40:32.101Z,29.53
2018-12-04T21:43:38.829Z,25.10
2018-12-04T21:46:45.674Z,26.37
2018-12-04T21:49:33.500Z,23.30
2018-12-04T21:52:21.141Z,19.20
2018-12-04T21:55:08.808Z,17.87
2018-12-04T21:57:56.489Z,18.00
2018-12-04T22:00:44.453Z,16.07
2018-12-04T22:03:32.248Z,16.53
2018-12-04T22:06:19.949Z,15.47
2018-12-04T22:09:08.046Z,15.13
2018-12-04T22:11:56.010Z,14.17
2018-12-04T22:14:43.702Z,13.47
2018-12-04T22:17:31.396Z,17.63
2018-12-04T22:20:20.010Z,17.33
2018-12-04T22:23:07.820Z,15.90
2018-12-04T22:25:55.832Z,18.13
2018-12-04T22:28:43.659Z,15.77
2018-12-04T22:31:31.725Z,14.67
2018-12-04T22:34:19.688Z,17.57
2018-12-04T22:37:07.580Z,18.50
2018-12-04T22:39:55.147Z,17.60
2018-12-04T22:42:43.158Z,18.63
2018-12-04T22:45:30.718Z,18.83
2018-12-04T22:48:18.298Z,17.77
2018-12-04T22:51:06.220Z,15.30
2018-12-04T22:53:53.867Z,15.00
2018-12-04T22:56:41.704Z,16.13
2018-12-04T22:59:30.085Z,14.07
2018-12-04T23:02:17.740Z,15.33
2018-12-04T23:05:05.739Z,16.97
2018-12-04T23:07:53.712Z,16.67
2018-12-04T23:10:41.835Z,15.70
2018-12-04T23:13:29.457Z,15.00
2018-12-04T23:16:17.097Z,16.90
2018-12-04T23:19:12.121Z,17.90
2018-12-04T23:22:00.121Z,16.87
2018-12-04T23:24:48.064Z,18.03
2018-12-04T23:27:35.733Z,18.60
2018-12-04T23:30:23.736Z,20.60
2018-12-04T23:33:11.668Z,20.03
2018-12-04T23:35:59.574Z,18.27
2018-12-04T23:38:47.127Z,52.13
2018-12-04T23:41:34.985Z,45.77
2018-12-04T23:44:24.743Z,90.63
2018-12-04T23:47:12.582Z,84.70
2018-12-04T23:50:00.256Z,93.23
2018-12-04T23:52:47.899Z,79.93
2018-12-04T23:55:35.613Z,100.10
2018-12-04T23:58:23.608Z,58.70
